createdAt,value
2018-06-21T00:00:11.716Z,99923.09
2018-06-21T00:02:41.351Z,99927.24
2018-06-21T00:05:11.060Z,99928.10
2018-06-21T00:07:40.672Z,99927.75
2018-06-21T00:10:10.311Z,99926.12
2018-06-21T00:12:39.961Z,99925.05
2018-06-21T00:15:09.591Z,99927.41
2018-06-21T00:17:39.244Z,99926.23
2018-06-21T00:20:08.933Z,99920.84
2018-06-21T00:22:38.600Z,99916.16
2018-06-21T00:25:08.290Z,99912.88
2018-06-21T00:27:37.900Z,99916.19
2018-06-21T00:30:07.553Z,99914.73
2018-06-21T00:32:37.199Z,99910.67
2018-06-21T00:35:06.887Z,99909.37
2018-06-21T00:37:36.488Z,99901.91
2018-06-21T00:40:06.216Z,99898.95
2018-06-21T00:42:35.840Z,99901.25
2018-06-21T00:45:05.488Z,99899.08
2018-06-21T00:47:35.147Z,99901.28
2018-06-21T00:50:04.855Z,99899.09
2018-06-21T00:52:34.500Z,99898.88
2018-06-21T00:55:04.423Z,99896.89
2018-06-21T00:57:34.059Z,99897.12
2018-06-21T01:00:03.762Z,99897.75
2018-06-21T01:02:33.433Z,99888.48
2018-06-21T01:05:03.043Z,99887.84
2018-06-21T01:07:32.664Z,99880.26
2018-06-21T01:10:02.342Z,99868.73
2018-06-21T01:12:32.016Z,99863.59
2018-06-21T01:15:01.643Z,99872.67
2018-06-21T01:17:31.287Z,99867.59
2018-06-21T01:20:00.904Z,99871.56
2018-06-21T01:22:30.531Z,99867.41
2018-06-21T01:25:00.184Z,99867.88
2018-06-21T01:27:29.788Z,99854.42
2018-06-21T01:29:59.407Z,99854.25
2018-06-21T01:32:29.075Z,99853.53
2018-06-21T01:34:58.692Z,99849.25
2018-06-21T01:37:28.316Z,99842.28
2018-06-21T01:39:57.976Z,99839.70
2018-06-21T01:42:27.587Z,99833.69
2018-06-21T01:44:57.240Z,99833.39
2018-06-21T01:47:26.859Z,99827.36
2018-06-21T01:49:56.504Z,99830.80
2018-06-21T01:52:26.165Z,99823.55
2018-06-21T01:54:55.811Z,99813.23
2018-06-21T01:57:25.432Z,99815.12
2018-06-21T01:59:55.108Z,99802.33
2018-06-21T02:02:24.731Z,99796.17
2018-06-21T02:04:54.373Z,99791.30
2018-06-21T02:07:24.032Z,99791.25
2018-06-21T02:09:53.637Z,99788.49
2018-06-21T02:12:23.275Z,99784.53
2018-06-21T02:14:52.968Z,99778.69
2018-06-21T02:17:22.652Z,99775.25
2018-06-21T02:19:52.407Z,99769.66
2018-06-21T02:22:22.092Z,99769.16
2018-06-21T02:24:51.780Z,99763.64
2018-06-21T02:27:21.532Z,99762.05
2018-06-21T02:29:51.233Z,99764.64
2018-06-21T02:32:20.968Z,99756.04
2018-06-21T02:34:50.708Z,99754.97
2018-06-21T02:37:20.436Z,99746.49
2018-06-21T02:39:50.161Z,99750.72
2018-06-21T02:42:19.863Z,99740.64
2018-06-21T02:44:49.617Z,99738.38
2018-06-21T02:47:19.320Z,99741.08
2018-06-21T02:49:49.024Z,99743.27
2018-06-21T02:52:18.764Z,99728.18
2018-06-21T02:54:48.477Z,99732.53
2018-06-21T02:57:18.216Z,99732.77
2018-06-21T02:59:48.017Z,99727.06
2018-06-21T03:02:18.040Z,99730.67
2018-06-21T03:04:47.822Z,99727.96
2018-06-21T03:07:17.540Z,99726.53
2018-06-21T03:09:47.292Z,99725.16
2018-06-21T03:12:23.864Z,99729.86
2018-06-21T03:14:54.796Z,99721.02
2018-06-21T03:17:24.512Z,99719.05
2018-06-21T03:19:54.261Z,99717.00
2018-06-21T03:22:23.913Z,99712.20
2018-06-21T03:24:53.531Z,99716.80
2018-06-21T03:27:23.184Z,99716.38
2018-06-21T03:29:52.897Z,99715.88
2018-06-21T03:32:22.588Z,99712.21
2018-06-21T03:34:52.255Z,99708.47
2018-06-21T03:37:21.885Z,99709.20
2018-06-21T03:39:51.499Z,99704.00
2018-06-21T03:42:21.168Z,99700.89
2018-06-21T03:44:50.791Z,99698.78
2018-06-21T03:47:20.412Z,99698.38
2018-06-21T03:49:50.068Z,99698.05
2018-06-21T03:52:19.758Z,99701.77
2018-06-21T03:54:49.332Z,99708.62
2018-06-21T03:57:19.107Z,99703.13
2018-06-21T03:59:48.732Z,99705.52
2018-06-21T04:02:18.340Z,99702.48
2018-06-21T04:04:48.052Z,99695.28
2018-06-21T04:07:17.663Z,99696.53
2018-06-21T04:09:47.268Z,99690.59
2018-06-21T04:12:16.928Z,99696.19
2018-06-21T04:14:46.559Z,99693.55
2018-06-21T04:17:16.240Z,99690.16
2018-06-21T04:19:45.855Z,99693.23
2018-06-21T04:22:15.491Z,99690.75
2018-06-21T04:24:45.142Z,99685.73
2018-06-21T04:27:14.860Z,99681.02
2018-06-21T04:29:44.498Z,99681.73
2018-06-21T04:32:14.188Z,99678.22
2018-06-21T04:34:43.808Z,99684.41
2018-06-21T04:37:13.456Z,99687.69
2018-06-21T04:39:43.139Z,99687.97
2018-06-21T04:42:12.784Z,99675.27
2018-06-21T04:44:42.391Z,99680.37
2018-06-21T04:47:12.064Z,99672.78
2018-06-21T04:49:41.713Z,99672.02
2018-06-21T04:52:11.314Z,99660.11
2018-06-21T04:54:40.979Z,99658.11
2018-06-21T04:57:10.612Z,99649.05
2018-06-21T04:59:40.276Z,99648.86
2018-06-21T05:02:09.932Z,99652.64
2018-06-21T05:04:39.547Z,99640.11
2018-06-21T05:07:09.212Z,99640.23
2018-06-21T05:09:38.863Z,99640.92
2018-06-21T05:12:08.486Z,99633.96
2018-06-21T05:14:38.156Z,99629.30
2018-06-21T05:17:07.810Z,99619.34
2018-06-21T05:19:37.457Z,99605.95
2018-06-21T05:22:07.162Z,99599.38
2018-06-21T05:24:36.783Z,99591.47
2018-06-21T05:27:06.420Z,99586.02
2018-06-21T05:29:36.123Z,99586.04
2018-06-21T05:32:05.789Z,99584.38
2018-06-21T05:34:35.468Z,99578.33
2018-06-21T05:37:05.166Z,99576.68
2018-06-21T05:39:34.791Z,99574.50
2018-06-21T05:42:04.452Z,99569.76
2018-06-21T05:44:34.126Z,99565.32
2018-06-21T05:47:03.789Z,99561.97
2018-06-21T05:49:33.407Z,99553.45
2018-06-21T05:52:03.088Z,99550.73
2018-06-21T05:54:32.699Z,99550.91
2018-06-21T05:57:02.320Z,99550.04
2018-06-21T05:59:32.004Z,99542.40
2018-06-21T06:02:01.654Z,99537.33
2018-06-21T06:04:31.452Z,99531.33
2018-06-21T06:07:01.124Z,99530.69
2018-06-21T06:09:30.776Z,99527.21
2018-06-21T06:12:00.418Z,99522.97
2018-06-21T06:14:30.079Z,99523.50
2018-06-21T06:16:59.715Z,99524.37
2018-06-21T06:19:29.345Z,99520.97
2018-06-21T06:21:59.030Z,99524.86
2018-06-21T06:24:28.657Z,99524.19
2018-06-21T06:26:58.287Z,99522.88
2018-06-21T06:29:27.965Z,99521.59
2018-06-21T06:31:57.625Z,99522.19
2018-06-21T06:34:27.325Z,99515.13
2018-06-21T06:36:57.002Z,99512.56
2018-06-21T06:39:26.992Z,99513.87
2018-06-21T06:41:56.683Z,99508.33
2018-06-21T06:44:26.316Z,99504.14
2018-06-21T06:46:55.951Z,99506.87
2018-06-21T06:49:25.628Z,99494.09
2018-06-21T06:51:55.263Z,99496.53
2018-06-21T06:54:24.971Z,99504.87
2018-06-21T06:56:54.657Z,99492.94
2018-06-21T06:59:24.296Z,99491.91
2018-06-21T07:01:53.980Z,99487.73
2018-06-21T07:04:23.664Z,99485.11
2018-06-21T07:06:53.308Z,99490.50
2018-06-21T07:09:22.934Z,99480.97
2018-06-21T07:11:52.622Z,99477.88
2018-06-21T07:14:22.360Z,99476.97
2018-06-21T07:16:51.960Z,99471.57
2018-06-21T07:19:21.805Z,99465.71
2018-06-21T07:21:51.433Z,99466.85
2018-06-21T07:24:21.116Z,99465.27
2018-06-21T07:26:50.757Z,99462.39
2018-06-21T07:29:20.381Z,99453.93
2018-06-21T07:31:50.096Z,99459.95
2018-06-21T07:34:19.728Z,99459.45
2018-06-21T07:36:49.363Z,99454.26
2018-06-21T07:39:19.043Z,99456.16
2018-06-21T07:41:48.663Z,99452.03
2018-06-21T07:44:18.275Z,99447.05
2018-06-21T07:46:47.974Z,99440.48
2018-06-21T07:49:17.619Z,99439.72
2018-06-21T07:51:47.291Z,99438.63
2018-06-21T07:54:16.970Z,99442.34
2018-06-21T07:56:46.584Z,99449.53
2018-06-21T07:59:16.241Z,99469.13
2018-06-21T08:01:45.873Z,99489.81
2018-06-21T08:04:15.507Z,99503.77
2018-06-21T08:06:45.230Z,99509.12
2018-06-21T08:09:14.948Z,99522.16
2018-06-21T08:11:44.633Z,99534.20
2018-06-21T08:14:14.373Z,99551.63
2018-06-21T08:16:45.596Z,99565.78
2018-06-21T08:19:15.291Z,99586.96
2018-06-21T08:21:44.955Z,99598.26
2018-06-21T08:24:15.593Z,99609.23
2018-06-21T08:26:45.281Z,99604.86
2018-06-21T08:29:15.236Z,99622.45
2018-06-21T08:31:45.112Z,99644.72
2018-06-21T08:34:14.787Z,99633.83
2018-06-21T08:36:44.532Z,99637.56
2018-06-21T08:39:14.187Z,99659.52
2018-06-21T08:41:43.892Z,99665.85
2018-06-21T08:44:13.551Z,99670.45
2018-06-21T08:46:43.245Z,99666.91
2018-06-21T08:49:12.896Z,99688.03
2018-06-21T08:51:42.576Z,99685.66
2018-06-21T08:54:12.245Z,99694.08
2018-06-21T08:56:41.924Z,99698.10
2018-06-21T08:59:11.575Z,99710.05
2018-06-21T09:01:41.274Z,99702.98
2018-06-21T09:04:10.925Z,99706.60
2018-06-21T09:06:40.568Z,99714.67
2018-06-21T09:09:10.667Z,99730.34
2018-06-21T09:11:40.384Z,99736.52
2018-06-21T09:14:10.065Z,99732.08
2018-06-21T09:16:39.787Z,99739.12
2018-06-21T09:19:09.463Z,99739.94
2018-06-21T09:21:39.144Z,99740.93
2018-06-21T09:24:08.928Z,99735.23
2018-06-21T09:26:38.592Z,99748.69
2018-06-21T09:29:08.261Z,99750.50
2018-06-21T09:31:38.116Z,99750.35
2018-06-21T09:34:07.787Z,99744.73
2018-06-21T09:36:42.214Z,99751.94
2018-06-21T09:39:17.447Z,99749.59
2018-06-21T09:42:53.902Z,99747.83
2018-06-21T09:45:28.680Z,99753.95
2018-06-21T09:48:34.555Z,99755.55
2018-06-21T09:51:04.216Z,99759.91
2018-06-21T09:53:33.880Z,99761.56
2018-06-21T09:56:03.588Z,99757.22
2018-06-21T09:58:33.211Z,99753.09
2018-06-21T10:01:04.025Z,99754.22
2018-06-21T10:03:34.204Z,99745.12
2018-06-21T10:06:03.864Z,99758.27
2018-06-21T10:08:33.544Z,99747.34
2018-06-21T10:11:03.190Z,99742.51
2018-06-21T10:13:32.840Z,99733.53
2018-06-21T10:16:02.572Z,99732.38
2018-06-21T10:18:32.216Z,99733.02
2018-06-21T10:21:01.876Z,99735.00
2018-06-21T10:23:31.579Z,99732.48
2018-06-21T10:26:01.261Z,99732.70
2018-06-21T10:28:30.905Z,99737.95
2018-06-21T10:31:00.617Z,99731.27
2018-06-21T10:33:30.260Z,99733.36
2018-06-21T10:35:59.900Z,99737.77
2018-06-21T10:38:29.587Z,99739.16
2018-06-21T10:40:59.231Z,99750.56
2018-06-21T10:43:28.868Z,99753.84
2018-06-21T10:45:58.572Z,99747.53
2018-06-21T10:48:28.217Z,99763.23
2018-06-21T10:50:57.871Z,99757.83
2018-06-21T10:53:27.572Z,99750.66
2018-06-21T10:55:57.211Z,99763.24
2018-06-21T10:58:26.859Z,99761.36
2018-06-21T11:00:56.563Z,99759.81
2018-06-21T11:03:26.207Z,99752.83
2018-06-21T11:05:55.960Z,99756.03
2018-06-21T11:08:25.637Z,99753.84
2018-06-21T11:10:55.300Z,99748.11
2018-06-21T11:13:24.934Z,99747.38
2018-06-21T11:15:54.648Z,99757.23
2018-06-21T11:18:24.303Z,99766.55
2018-06-21T11:20:53.931Z,99769.28
2018-06-21T11:23:23.603Z,99787.56
2018-06-21T11:25:53.208Z,99803.65
2018-06-21T11:28:22.832Z,99800.39
2018-06-21T11:30:52.483Z,99800.55
2018-06-21T11:33:22.119Z,99818.42
2018-06-21T11:35:51.745Z,99829.98
2018-06-21T11:38:21.404Z,99835.20
2018-06-21T11:40:51.033Z,99830.75
2018-06-21T11:43:20.659Z,99837.89
2018-06-21T11:45:50.316Z,99837.95
2018-06-21T11:48:19.932Z,99851.53
2018-06-21T11:50:49.554Z,99855.29
2018-06-21T11:53:19.246Z,99865.77
2018-06-21T11:55:48.881Z,99864.46
2018-06-21T11:58:18.509Z,99869.21
2018-06-21T12:00:48.185Z,99856.57
2018-06-21T12:03:17.880Z,99864.55
2018-06-21T12:05:47.565Z,99871.72
2018-06-21T12:08:17.207Z,99873.39
2018-06-21T12:10:46.808Z,99868.55
2018-06-21T12:13:16.467Z,99861.83
2018-06-21T12:15:46.092Z,99864.45
2018-06-21T12:18:16.168Z,99857.81
2018-06-21T12:20:45.850Z,99861.25
2018-06-21T12:23:15.480Z,99859.02
2018-06-21T12:25:45.160Z,99858.39
2018-06-21T12:28:14.789Z,99853.22
2018-06-21T12:30:44.425Z,99843.72
2018-06-21T12:33:14.264Z,99858.13
2018-06-21T12:35:43.887Z,99851.48
2018-06-21T12:38:13.503Z,99859.02
2018-06-21T12:40:43.172Z,99859.59
2018-06-21T12:43:12.824Z,99859.66
2018-06-21T12:45:42.496Z,99867.02
2018-06-21T12:48:12.100Z,99871.60
2018-06-21T12:50:41.744Z,99863.30
2018-06-21T12:53:11.425Z,99852.59
2018-06-21T12:55:41.057Z,99870.91
2018-06-21T12:58:10.720Z,99863.49
2018-06-21T13:00:40.448Z,99878.84
2018-06-21T13:03:10.080Z,99883.98
2018-06-21T13:05:39.762Z,99882.08
2018-06-21T13:08:09.496Z,99898.30
2018-06-21T13:11:50.193Z,99914.77
2018-06-21T13:14:25.520Z,99933.88
2018-06-21T13:16:55.179Z,99939.03
2018-06-21T13:19:24.832Z,99946.69
2018-06-21T13:21:54.499Z,99968.47
2018-06-21T13:24:24.126Z,99962.73
2018-06-21T13:26:53.760Z,99962.59
2018-06-21T13:29:23.404Z,99969.05
2018-06-21T13:31:53.096Z,99961.80
2018-06-21T13:34:22.827Z,99959.64
2018-06-21T13:36:52.524Z,99969.25
2018-06-21T13:39:22.160Z,99968.16
2018-06-21T13:41:51.812Z,99981.84
2018-06-21T13:44:21.773Z,99980.76
2018-06-21T13:46:51.417Z,99974.55
2018-06-21T13:49:21.089Z,99973.64
2018-06-21T13:51:50.741Z,99980.53
2018-06-21T13:54:20.360Z,99984.94
2018-06-21T13:56:50.037Z,99991.02
2018-06-21T13:59:20.192Z,99966.48
2018-06-21T14:01:50.700Z,99991.03
2018-06-21T14:04:20.782Z,99986.44
2018-06-21T14:06:50.474Z,99984.23
2018-06-21T14:09:20.156Z,99992.17
2018-06-21T14:11:49.803Z,100001.41
2018-06-21T14:14:19.515Z,100004.03
2018-06-21T14:16:49.179Z,100002.66
2018-06-21T14:19:18.944Z,100010.96
2018-06-21T14:21:48.560Z,100006.48
2018-06-21T14:24:18.247Z,100018.75
2018-06-21T14:26:47.883Z,100014.59
2018-06-21T14:29:17.642Z,100022.48
2018-06-21T14:31:47.288Z,100019.64
2018-06-21T14:34:16.963Z,100024.80
2018-06-21T14:36:46.669Z,100021.48
2018-06-21T14:39:16.305Z,100027.48
2018-06-21T14:41:45.975Z,100030.89
2018-06-21T14:44:15.721Z,100032.25
2018-06-21T14:46:45.361Z,100021.38
2018-06-21T14:49:14.971Z,100041.28
2018-06-21T14:51:44.676Z,100040.06
2018-06-21T14:54:14.380Z,100048.95
2018-06-21T14:56:44.065Z,100048.62
2018-06-21T14:59:13.736Z,100051.13
2018-06-21T15:01:43.420Z,100061.47
2018-06-21T15:04:13.100Z,100054.80
2018-06-21T15:06:42.752Z,100051.76
2018-06-21T15:09:13.783Z,100047.60
2018-06-21T15:11:43.452Z,100058.23
2018-06-21T15:14:13.128Z,100049.06
2018-06-21T15:16:42.796Z,100050.42
2018-06-21T15:19:12.440Z,100051.86
2018-06-21T15:21:42.127Z,100056.02
2018-06-21T15:24:11.760Z,100047.90
2018-06-21T15:26:41.422Z,100054.98
2018-06-21T15:29:11.137Z,100045.12
2018-06-21T15:31:40.844Z,100056.66
2018-06-21T15:34:10.498Z,100061.00
2018-06-21T15:36:40.184Z,100052.98
2018-06-21T15:39:24.011Z,100062.58
2018-06-21T15:41:53.740Z,100064.99
2018-06-21T15:44:23.380Z,100069.48
2018-06-21T15:46:53.192Z,100070.09
2018-06-21T15:49:22.842Z,100079.79
2018-06-21T15:51:52.481Z,100076.86
2018-06-21T15:54:22.176Z,100087.16
2018-06-21T15:56:51.820Z,100080.22
2018-06-21T15:59:21.480Z,100092.91
2018-06-21T16:01:51.187Z,100089.05
2018-06-21T16:04:20.844Z,100097.81
2018-06-21T16:06:50.510Z,100098.61
2018-06-21T16:09:20.248Z,100105.35
2018-06-21T16:11:49.897Z,100110.15
2018-06-21T16:14:19.556Z,100126.59
2018-06-21T16:16:49.257Z,100129.09
2018-06-21T16:19:18.895Z,100129.92
2018-06-21T16:21:48.547Z,100123.55
2018-06-21T16:24:18.219Z,100141.68
2018-06-21T16:26:47.885Z,100143.33
2018-06-21T16:29:17.628Z,100149.34
2018-06-21T16:31:47.359Z,100156.53
2018-06-21T16:34:17.010Z,100160.85
2018-06-21T16:36:46.669Z,100161.00
2018-06-21T16:39:16.372Z,100158.30
2018-06-21T16:41:46.021Z,100169.94
2018-06-21T16:44:15.672Z,100169.44
2018-06-21T16:46:45.351Z,100149.52
2018-06-21T16:49:14.989Z,100166.56
2018-06-21T16:51:44.638Z,100163.97
2018-06-21T16:54:14.325Z,100162.17
2018-06-21T16:56:43.965Z,100162.37
2018-06-21T16:59:13.650Z,100179.81
2018-06-21T17:01:43.352Z,100176.13
2018-06-21T17:04:12.967Z,100185.58
2018-06-21T17:06:42.620Z,100193.69
2018-06-21T17:09:12.296Z,100207.52
2018-06-21T17:11:42.148Z,100204.95
2018-06-21T17:14:11.787Z,100201.48
2018-06-21T17:16:41.464Z,100202.27
2018-06-21T17:19:11.087Z,100202.67
2018-06-21T17:21:40.832Z,100205.24
2018-06-21T17:24:10.527Z,100210.11
2018-06-21T17:26:40.251Z,100205.92
2018-06-21T17:29:09.916Z,100200.89
2018-06-21T17:31:39.585Z,100213.87
2018-06-21T17:34:09.227Z,100216.31
2018-06-21T17:36:38.948Z,100216.45
2018-06-21T17:39:10.069Z,100221.13
2018-06-21T17:41:39.720Z,100215.45
2018-06-21T17:44:09.344Z,100214.89
2018-06-21T17:46:39.049Z,100228.25
2018-06-21T17:49:08.692Z,100221.09
2018-06-21T17:51:38.356Z,100223.20
2018-06-21T17:54:08.037Z,100232.09
2018-06-21T17:56:37.680Z,100222.22
2018-06-21T17:59:07.351Z,100226.61
2018-06-21T18:01:37.050Z,100226.87
2018-06-21T18:04:06.700Z,100233.55
2018-06-21T18:06:36.340Z,100233.02
2018-06-21T18:09:08.184Z,100235.56
2018-06-21T18:11:37.840Z,100234.16
2018-06-21T18:14:07.554Z,100233.98
2018-06-21T18:16:37.267Z,100235.16
2018-06-21T18:19:06.913Z,100236.97
2018-06-21T18:21:36.560Z,100241.91
2018-06-21T18:24:06.267Z,100241.52
2018-06-21T18:26:35.916Z,100242.97
2018-06-21T18:29:05.558Z,100242.34
2018-06-21T18:31:35.240Z,100245.57
2018-06-21T18:34:05.004Z,100244.84
2018-06-21T18:36:34.661Z,100241.52
2018-06-21T18:39:04.729Z,100244.95
2018-06-21T18:41:34.403Z,100241.86
2018-06-21T18:44:04.100Z,100244.70
2018-06-21T18:46:33.772Z,100245.89
2018-06-21T18:49:03.441Z,100246.66
2018-06-21T18:51:33.133Z,100245.34
2018-06-21T18:54:02.808Z,100254.28
2018-06-21T18:56:32.440Z,100255.96
2018-06-21T18:59:02.140Z,100255.23
2018-06-21T19:01:31.759Z,100259.96
2018-06-21T19:04:01.422Z,100252.78
2018-06-21T19:06:36.203Z,100263.28
2018-06-21T19:09:13.093Z,100257.39
2018-06-21T19:11:48.047Z,100261.52
2018-06-21T19:14:17.675Z,100262.05
2018-06-21T19:16:47.331Z,100258.02
2018-06-21T19:19:17.072Z,100270.62
2018-06-21T19:21:46.746Z,100271.05
2018-06-21T19:24:16.368Z,100275.46
2018-06-21T19:26:46.120Z,100281.03
2018-06-21T19:29:15.760Z,100275.95
2018-06-21T19:31:45.392Z,100279.41
2018-06-21T19:34:15.293Z,100282.28
2018-06-21T19:36:44.930Z,100284.52
2018-06-21T19:39:14.564Z,100290.42
2018-06-21T19:41:44.246Z,100281.48
2018-06-21T19:44:13.873Z,100282.39
2018-06-21T19:46:43.512Z,100295.86
2018-06-21T19:49:13.178Z,100293.86
2018-06-21T19:51:42.897Z,100301.11
2018-06-21T19:54:12.570Z,100300.47
2018-06-21T19:56:42.296Z,100301.16
2018-06-21T19:59:11.921Z,100301.84
2018-06-21T20:01:41.559Z,100308.60
2018-06-21T20:04:11.271Z,100313.92
2018-06-21T20:06:40.944Z,100319.67
2018-06-21T20:09:11.908Z,100315.80
2018-06-21T20:11:41.548Z,100314.95
2018-06-21T20:14:11.239Z,100323.72
2018-06-21T20:16:40.899Z,100323.70
2018-06-21T20:19:15.327Z,100325.37
2018-06-21T20:21:45.147Z,100319.51
2018-06-21T20:24:14.807Z,100329.11
2018-06-21T20:26:44.488Z,100323.05
2018-06-21T20:29:19.239Z,100324.38
2018-06-21T20:31:48.935Z,100337.33
2018-06-21T20:34:18.588Z,100334.33
2018-06-21T20:36:48.298Z,100336.38
2018-06-21T20:39:17.956Z,100330.02
2018-06-21T20:41:47.582Z,100326.33
2018-06-21T20:44:17.365Z,100326.19
2018-06-21T20:46:46.957Z,100334.26
2018-06-21T20:49:16.585Z,100330.88
2018-06-21T20:51:46.260Z,100334.23
2018-06-21T20:54:15.956Z,100332.89
2018-06-21T20:56:45.647Z,100328.66
2018-06-21T20:59:15.293Z,100335.41
2018-06-21T21:01:44.963Z,100334.55
2018-06-21T21:04:14.591Z,100337.38
2018-06-21T21:06:44.255Z,100335.03
2018-06-21T21:09:13.961Z,100342.27
2018-06-21T21:11:43.560Z,100348.94
2018-06-21T21:14:13.253Z,100353.77
2018-06-21T21:16:42.957Z,100355.61
2018-06-21T21:19:12.601Z,100356.97
2018-06-21T21:21:42.288Z,100359.47
2018-06-21T21:24:11.961Z,100358.55
2018-06-21T21:26:41.624Z,100359.20
2018-06-21T21:29:11.300Z,100366.23
2018-06-21T21:31:41.021Z,100361.97
2018-06-21T21:34:10.621Z,100354.61
2018-06-21T21:36:40.284Z,100357.22
2018-06-21T21:39:10.714Z,100360.55
2018-06-21T21:41:40.385Z,100355.54
2018-06-21T21:44:10.042Z,100355.87
2018-06-21T21:46:39.676Z,100354.35
2018-06-21T21:49:09.398Z,100354.16
2018-06-21T21:51:39.017Z,100353.06
2018-06-21T21:54:08.659Z,100355.20
2018-06-21T21:56:38.336Z,100352.50
2018-06-21T21:59:07.933Z,100351.62
2018-06-21T22:01:37.586Z,100348.27
2018-06-21T22:04:07.252Z,100355.56
2018-06-21T22:06:36.920Z,100353.33
2018-06-21T22:09:08.887Z,100361.12
2018-06-21T22:11:39.088Z,100362.42
2018-06-21T22:14:08.751Z,100362.93
2018-06-21T22:16:38.380Z,100362.34
2018-06-21T22:19:08.055Z,100359.98
2018-06-21T22:21:37.714Z,100363.39
2018-06-21T22:24:07.449Z,100360.66
2018-06-21T22:26:37.147Z,100365.23
2018-06-21T22:29:06.783Z,100366.77
2018-06-21T22:31:36.420Z,100366.77
2018-06-21T22:34:06.305Z,100364.34
2018-06-21T22:36:35.942Z,100362.42
2018-06-21T22:39:08.322Z,100362.81
2018-06-21T22:41:37.947Z,100357.95
2018-06-21T22:44:07.589Z,100359.69
2018-06-21T22:46:37.275Z,100351.47
2018-06-21T22:49:07.444Z,100354.34
2018-06-21T22:51:37.248Z,100354.64
2018-06-21T22:54:07.383Z,100354.48
2018-06-21T22:56:37.056Z,100348.61
2018-06-21T22:59:06.693Z,100354.60
2018-06-21T23:01:36.355Z,100353.90
2018-06-21T23:04:06.073Z,100343.80
2018-06-21T23:06:35.712Z,100348.96
2018-06-21T23:09:06.831Z,100341.13
2018-06-21T23:11:36.473Z,100343.55
2018-06-21T23:14:06.168Z,100333.60
2018-06-21T23:16:35.845Z,100340.48
2018-06-21T23:19:16.448Z,100334.14
2018-06-21T23:21:46.064Z,100336.34
2018-06-21T23:24:15.746Z,100330.47
2018-06-21T23:26:45.433Z,100327.34
2018-06-21T23:29:15.077Z,100330.59
2018-06-21T23:31:44.880Z,100324.53
2018-06-21T23:34:14.444Z,100320.17
2018-06-21T23:36:44.137Z,100316.05
2018-06-21T23:39:13.848Z,100320.95
2018-06-21T23:41:44.157Z,100315.97
2018-06-21T23:44:14.737Z,100308.79
2018-06-21T23:46:44.896Z,100301.05
2018-06-21T23:49:14.881Z,100298.66
2018-06-21T23:51:44.568Z,100307.23
2018-06-21T23:54:14.824Z,100295.78
2018-06-21T23:56:45.100Z,100307.47
2018-06-21T23:59:14.748Z,100302.41
